Time;durP1;ratioP1;P1;durP2;ratioP2;P2;SDS_P1;SDS_P2;PMS_P1;PMS_P2;Temp;Humidity;BMP_temperature;BMP_pressure;BME280_temperature;BME280_humidity;BME280_pressure;Samples;Min_cycle;Max_cycle;Signal;HPM_P1;HPM_P2
2024/02/08 00:00:56;;;;;;;1.17;0.90;;;9.30;99.90;;;9.80;100.00;96620.75;4979470;28;20472;-76
2024/02/08 00:03:26;;;;;;;1.20;0.90;;;9.20;99.90;;;9.84;100.00;96634.19;4980758;28;20460;-76
2024/02/08 00:05:54;;;;;;;2.00;0.70;;;9.30;99.90;;;9.82;100.00;96625.78;4980617;28;20484;-76
2024/02/08 00:08:23;;;;;;;0.70;0.70;;;9.40;99.90;;;9.80;100.00;96633.00;4980733;28;20491;-76
2024/02/08 00:10:52;;;;;;;0.70;0.70;;;9.40;99.90;;;9.80;100.00;96625.19;4981867;28;21049;-77
2024/02/08 00:13:20;;;;;;;0.77;0.70;;;9.30;99.90;;;9.84;100.00;96626.34;4979956;28;20890;-76
2024/02/08 00:15:49;;;;;;;0.70;0.60;;;9.30;99.90;;;9.84;100.00;96628.97;4978571;28;20461;-76
2024/02/08 00:18:18;;;;;;;0.70;0.60;;;9.30;99.90;;;9.81;100.00;96618.94;4979746;28;20472;-76
2024/02/08 00:20:48;;;;;;;0.70;0.70;;;9.30;99.90;;;9.82;100.00;96617.94;4979868;28;20466;-76
2024/02/08 00:23:17;;;;;;;0.90;0.77;;;9.40;99.90;;;9.83;100.00;96614.31;4981236;28;20495;-76
2024/02/08 00:25:47;;;;;;;0.80;0.70;;;9.40;99.90;;;9.81;100.00;96614.53;4979942;28;20989;-77
2024/02/08 00:28:16;;;;;;;0.80;0.70;;;9.50;99.90;;;9.86;100.00;96616.47;4981711;28;20471;-76
2024/02/08 00:30:45;;;;;;;1.10;0.80;;;9.40;99.90;;;9.86;100.00;96611.25;4980584;28;20600;-76
2024/02/08 00:33:14;;;;;;;1.93;0.90;;;9.30;99.90;;;9.86;100.00;96614.66;4981630;28;20468;-76
2024/02/08 00:35:42;;;;;;;0.90;0.70;;;9.50;99.90;;;9.89;100.00;96618.69;4980246;28;20773;-76
2024/02/08 00:38:12;;;;;;;0.90;0.60;;;9.40;99.90;;;9.84;100.00;96615.91;4981000;28;20471;-76
2024/02/08 00:40:41;;;;;;;2.20;0.70;;;9.40;99.90;;;9.87;100.00;96612.84;4980302;28;21181;-76
2024/02/08 00:43:09;;;;;;;0.80;0.70;;;9.30;99.90;;;9.88;100.00;96611.84;4980160;28;20891;-76
2024/02/08 00:45:37;;;;;;;0.70;0.60;;;9.40;99.90;;;9.93;100.00;96611.97;4978969;28;20891;-76
2024/02/08 00:48:09;;;;;;;0.70;0.60;;;9.40;99.90;;;9.96;100.00;96617.56;4979413;28;20474;-76
2024/02/08 00:50:38;;;;;;;0.70;0.70;;;9.40;99.90;;;9.95;100.00;96615.19;4980488;28;20579;-76
2024/02/08 00:53:06;;;;;;;1.30;0.70;;;9.50;99.90;;;9.97;100.00;96608.72;4981140;28;20472;-76
2024/02/08 00:55:36;;;;;;;0.70;0.60;;;9.40;99.90;;;9.98;100.00;96612.13;4979501;28;20487;-76
2024/02/08 00:58:05;;;;;;;1.83;0.70;;;9.40;99.90;;;10.01;100.00;96606.47;4980746;28;21047;-76
2024/02/08 01:00:38;;;;;;;0.70;0.70;;;9.40;99.90;;;10.01;100.00;96609.88;4981178;28;20510;-76
2024/02/08 01:03:07;;;;;;;0.70;0.70;;;9.40;99.90;;;10.02;100.00;96610.69;4977943;28;20503;-76
2024/02/08 01:05:36;;;;;;;1.00;0.90;;;9.40;99.90;;;10.03;100.00;96604.44;4979645;28;20900;-76
2024/02/08 01:08:05;;;;;;;0.97;0.80;;;9.40;99.90;;;10.01;100.00;96606.47;4979749;28;20705;-76
2024/02/08 01:10:33;;;;;;;0.80;0.80;;;9.50;99.90;;;10.02;100.00;96605.47;4979566;28;20456;-76
2024/02/08 01:13:04;;;;;;;0.70;0.67;;;9.50;99.90;;;9.98;100.00;96612.13;4979072;28;20475;-76
2024/02/08 01:15:33;;;;;;;2.30;0.70;;;9.50;99.90;;;10.01;100.00;96614.31;4979601;28;20472;-76
2024/02/08 01:18:03;;;;;;;1.17;0.80;;;9.50;99.90;;;10.00;100.00;96612.69;4979368;28;20467;-77
2024/02/08 01:20:32;;;;;;;1.10;0.80;;;9.60;99.90;;;9.98;100.00;96610.31;4980522;28;20473;-76
2024/02/08 01:23:04;;;;;;;0.70;0.60;;;9.50;99.90;;;10.00;100.00;96613.50;4981317;28;21002;-76
2024/02/08 01:25:33;;;;;;;0.87;0.80;;;9.40;99.90;;;9.98;100.00;96605.09;4980918;28;20574;-77
2024/02/08 01:28:03;;;;;;;0.70;0.60;;;9.50;99.90;;;9.99;100.00;96606.72;4980472;28;20471;-76
2024/02/08 01:30:35;;;;;;;0.80;0.80;;;9.60;99.90;;;10.00;100.00;96612.69;4980862;28;20467;-76
2024/02/08 01:33:04;;;;;;;0.70;0.60;;;9.40;99.90;;;10.04;100.00;96606.03;4980873;28;20464;-76
2024/02/08 01:35:33;;;;;;;1.47;0.93;;;9.50;99.90;;;10.04;100.00;96613.88;4979084;28;20476;-76
2024/02/08 01:38:02;;;;;;;2.40;0.73;;;9.50;99.90;;;10.04;100.00;96619.88;4980353;28;20467;-76
2024/02/08 01:40:30;;;;;;;2.00;0.70;;;9.50;99.90;;;10.04;100.00;96609.44;4979401;28;20982;-76
2024/02/08 01:42:59;;;;;;;2.07;1.30;;;9.60;99.90;;;10.05;100.00;96612.84;4980110;28;20515;-76
2024/02/08 01:45:38;;;;;;;1.90;1.10;;;9.60;99.90;;;10.06;100.00;96617.88;4979634;28;20467;-77
2024/02/08 01:48:10;;;;;;;2.07;0.90;;;9.60;99.90;;;10.08;100.00;96609.81;4980400;28;20471;-76
2024/02/08 01:50:45;;;;;;;1.20;0.80;;;9.60;99.90;;;10.09;100.00;96608.78;4979416;28;21037;-76
2024/02/08 01:53:18;;;;;;;5.20;0.80;;;9.60;99.90;;;10.10;100.00;96612.97;4980224;28;20473;-76
2024/02/08 01:55:49;;;;;;;2.80;0.87;;;9.60;99.90;;;10.11;100.00;96598.91;4979230;28;20940;-76
2024/02/08 01:58:21;;;;;;;1.30;0.67;;;9.60;99.90;;;10.13;100.00;96606.53;4982497;28;20805;-76
2024/02/08 02:00:52;;;;;;;1.83;0.70;;;9.60;99.90;;;10.13;100.00;96596.09;4982676;28;20451;-76
2024/02/08 02:03:23;;;;;;;0.77;0.63;;;9.60;99.90;;;10.12;100.00;96595.28;4983629;28;20515;-77
2024/02/08 02:05:52;;;;;;;3.33;0.90;;;9.60;99.90;;;10.10;100.00;96592.09;4983171;28;20456;-76
2024/02/08 02:08:26;;;;;;;3.30;0.90;;;9.50;99.90;;;10.12;100.00;96595.28;4983640;28;20452;-76
2024/02/08 02:11:13;;;;;;;3.00;0.70;;;9.60;99.90;;;10.11;100.00;96591.88;4982496;28;20462;-76
2024/02/08 02:13:47;;;;;;;0.80;0.70;;;9.60;99.90;;;10.11;100.00;96588.47;4981688;28;20499;-76
2024/02/08 02:16:17;;;;;;;2.30;0.80;;;9.70;99.90;;;10.11;100.00;96591.88;4982912;28;20460;-76
2024/02/08 02:18:48;;;;;;;1.77;0.70;;;9.50;99.90;;;10.15;100.00;96587.03;4983036;28;20475;-76
2024/02/08 02:21:21;;;;;;;0.80;0.70;;;9.60;99.90;;;10.14;100.00;96585.44;4983654;28;20460;-76
2024/02/08 02:23:52;;;;;;;0.70;0.60;;;9.70;99.90;;;10.15;100.00;96581.81;4983013;28;20484;-76
2024/02/08 02:26:21;;;;;;;0.80;0.80;;;9.70;99.90;;;10.20;100.00;96578.56;4984157;28;20471;-76
2024/02/08 02:28:50;;;;;;;0.80;0.80;;;9.60;99.90;;;10.19;100.00;96579.56;4982459;28;20481;-76
2024/02/08 02:31:23;;;;;;;5.83;0.90;;;9.70;99.90;;;10.20;100.00;96586.41;4982966;28;20519;-76
2024/02/08 02:33:54;;;;;;;1.58;0.80;;;9.70;99.90;;;10.18;100.00;96573.53;4983923;28;21316;-76
2024/02/08 02:36:25;;;;;;;0.80;0.70;;;9.70;99.90;;;10.19;100.00;96579.56;4986294;28;20271;-77
2024/02/08 02:38:53;;;;;;;0.70;0.60;;;9.60;99.90;;;10.21;100.00;96573.09;4988158;28;21224;-75
2024/02/08 02:41:25;;;;;;;0.70;0.70;;;9.60;99.90;;;10.23;100.00;96572.88;4986402;28;20467;-76
2024/02/08 02:43:54;;;;;;;0.80;0.70;;;9.70;99.90;;;10.20;100.00;96565.50;4988552;28;20563;-76
2024/02/08 02:46:22;;;;;;;0.70;0.70;;;9.70;99.90;;;10.24;100.00;96566.66;4985391;28;20474;-76
2024/02/08 02:48:51;;;;;;;6.87;0.87;;;9.60;99.90;;;10.22;100.00;96571.28;4982512;28;20562;-76
2024/02/08 02:51:20;;;;;;;0.80;0.70;;;9.70;99.90;;;10.21;100.00;96567.06;4982205;28;20471;-76
2024/02/08 02:53:53;;;;;;;0.80;0.70;;;9.80;99.90;;;10.22;100.00;96564.25;4981740;28;20454;-76
2024/02/08 02:56:21;;;;;;;0.70;0.70;;;9.70;99.90;;;10.22;100.00;96556.41;4981434;28;20460;-76
2024/02/08 02:58:49;;;;;;;0.70;0.60;;;9.80;99.90;;;10.22;100.00;96556.41;4980121;28;20464;-77
2024/02/08 03:01:19;;;;;;;0.70;0.70;;;9.70;99.90;;;10.20;100.00;96558.47;4982501;28;20542;-76
2024/02/08 03:03:48;;;;;;;1.40;0.70;;;9.70;99.90;;;10.20;100.00;96555.84;4985490;28;20500;-77
2024/02/08 03:06:16;;;;;;;1.83;0.70;;;9.60;99.90;;;10.21;100.00;96548.78;4985666;28;20586;-76
2024/02/08 03:08:47;;;;;;;0.80;0.70;;;9.50;99.90;;;10.22;100.00;96548.56;4986518;28;20460;-77
2024/02/08 03:11:17;;;;;;;1.10;0.60;;;9.60;99.90;;;10.23;100.00;96549.38;4987337;28;20820;-76
2024/02/08 03:13:46;;;;;;;0.70;0.60;;;9.60;99.90;;;10.23;100.00;96538.94;4987754;28;21045;-76
2024/02/08 03:16:16;;;;;;;0.80;0.70;;;9.70;99.90;;;10.26;100.00;96544.50;4986698;28;20460;-77
2024/02/08 03:18:48;;;;;;;2.70;0.70;;;9.70;99.90;;;10.26;100.00;96544.50;4987112;28;20460;-76
2024/02/08 03:21:21;;;;;;;0.70;0.63;;;9.70;99.90;;;10.25;100.00;96537.69;4987182;28;21002;-75
2024/02/08 03:23:56;;;;;;;6.03;0.80;;;9.70;99.90;;;10.25;100.00;96529.84;4987204;28;20487;-76
2024/02/08 03:26:26;;;;;;;0.80;0.60;;;9.80;99.90;;;10.26;100.00;96531.44;4986273;28;20561;-76
2024/02/08 03:28:55;;;;;;;2.20;0.70;;;9.80;99.90;;;10.30;100.00;96527.38;4986648;28;20971;-76
2024/02/08 03:31:26;;;;;;;0.70;0.60;;;9.70;99.90;;;10.31;100.00;96531.56;4987228;28;20463;-76
2024/02/08 03:33:55;;;;;;;2.20;0.60;;;9.80;99.90;;;10.30;100.00;96531.81;4987173;28;20503;-76
2024/02/08 03:36:24;;;;;;;1.53;0.70;;;9.70;99.90;;;10.30;100.00;96529.19;4986554;28;20546;-76
2024/02/08 03:38:53;;;;;;;3.20;0.70;;;9.70;99.90;;;10.29;100.00;96523.16;4986165;28;20445;-76
2024/02/08 03:41:26;;;;;;;0.80;0.70;;;9.70;99.90;;;10.30;100.00;96519.53;4980651;28;20683;-77
2024/02/08 03:43:57;;;;;;;1.00;0.80;;;9.80;99.90;;;10.30;100.00;96522.16;4980236;28;20505;-76
2024/02/08 03:46:26;;;;;;;0.70;0.70;;;9.80;99.90;;;10.34;100.00;96532.94;4980972;28;20455;-77
2024/02/08 03:48:57;;;;;;;0.90;0.90;;;9.80;99.90;;;10.33;100.00;96523.50;4981475;28;20470;-77
2024/02/08 03:51:28;;;;;;;0.80;0.80;;;9.90;99.90;;;10.36;100.00;96523.06;4979577;28;20464;-76
2024/02/08 03:54:00;;;;;;;1.20;0.90;;;9.80;99.90;;;10.35;100.00;96522.25;4981023;28;20483;-76
2024/02/08 03:56:36;;;;;;;1.07;0.97;;;9.80;99.90;;;10.36;100.00;96523.88;4980073;28;20594;-77
2024/02/08 03:59:11;;;;;;;1.90;1.70;;;9.80;99.90;;;10.34;100.00;96523.31;4980339;28;20875;-76
2024/02/08 04:01:43;;;;;;;5.70;1.80;;;9.80;99.90;;;10.35;100.00;96521.47;4978971;28;20996;-76
2024/02/08 04:04:16;;;;;;;0.80;0.80;;;9.80;99.90;;;10.33;100.00;96518.28;4980863;28;20862;-76
2024/02/08 04:07:00;;;;;;;1.27;1.13;;;9.90;99.90;;;10.35;100.00;96516.25;4980622;28;20471;-76
2024/02/08 04:09:35;;;;;;;1.07;0.97;;;9.90;99.90;;;10.33;100.00;96526.94;4979696;28;20458;-76
2024/02/08 04:54:02;;;;;;;1.10;1.00;;;9.80;99.90;;;10.37;100.00;96504.56;4954736;28;20467;-77
2024/02/08 04:56:31;;;;;;;1.27;1.17;;;9.80;99.90;;;10.36;100.00;96504.78;4980330;28;20962;-77
2024/02/08 04:58:59;;;;;;;1.30;1.13;;;9.70;99.90;;;10.36;100.00;96505.56;4979989;28;20507;-77
2024/02/08 05:01:47;;;;;;;1.27;0.90;;;9.70;99.90;;;10.32;100.00;96498.41;4971843;28;20644;-79
2024/02/08 05:04:18;;;;;;;6.53;4.20;;;9.70;99.90;;;10.36;100.00;96489.09;4978735;28;20499;-77
2024/02/08 05:06:47;;;;;;;4.20;2.63;;;9.70;99.90;;;10.40;100.00;96487.63;4979962;28;20482;-77
2024/02/08 05:09:19;;;;;;;1.40;1.20;;;9.70;99.90;;;10.41;100.00;96489.25;4980004;28;20475;-76
2024/02/08 05:11:49;;;;;;;1.10;0.73;;;9.70;99.90;;;10.32;100.00;96486.13;4978097;28;20473;-80
2024/02/08 05:14:20;;;;;;;13.53;5.50;;;9.70;99.90;;;10.33;100.00;96482.50;4980557;28;20948;-77
2024/02/08 05:16:54;;;;;;;1.87;1.37;;;9.70;99.90;;;10.38;100.00;96480.00;4981728;28;20471;-77
2024/02/08 05:19:26;;;;;;;1.00;0.90;;;9.70;99.90;;;10.40;100.00;96485.81;4980503;28;20519;-77
2024/02/08 05:22:02;;;;;;;0.87;0.70;;;9.70;99.90;;;10.42;100.00;96489.00;4979441;28;20475;-76
2024/02/08 05:24:33;;;;;;;1.83;0.73;;;9.80;99.90;;;10.44;100.00;96483.56;4980040;28;20487;-77
2024/02/08 05:27:02;;;;;;;1.13;0.90;;;9.80;99.90;;;10.40;100.00;96483.22;4980413;28;20468;-77
2024/02/08 05:29:32;;;;;;;1.00;0.90;;;9.80;99.90;;;10.45;100.00;96480.69;4976376;28;20504;-77
2024/02/08 05:32:01;;;;;;;0.90;0.90;;;9.80;99.90;;;10.44;100.00;96473.91;4980104;28;20841;-77
2024/02/08 05:34:33;;;;;;;1.20;1.10;;;9.90;99.90;;;10.47;100.00;96494.38;4983560;28;20460;-77
2024/02/08 05:37:02;;;;;;;1.27;1.00;;;9.80;99.90;;;10.49;100.00;96487.09;4983137;28;20463;-77
2024/02/08 05:39:31;;;;;;;4.10;0.90;;;9.90;99.90;;;10.48;100.00;96490.72;4983042;28;20492;-77
2024/02/08 05:42:00;;;;;;;0.90;0.80;;;9.90;99.90;;;10.49;100.00;96487.09;4982965;28;20499;-77
2024/02/08 05:44:29;;;;;;;4.00;1.10;;;9.90;99.90;;;10.48;100.00;96493.31;4982477;28;21050;-77
2024/02/08 05:47:06;;;;;;;4.10;0.90;;;9.90;99.90;;;10.48;100.00;96485.47;4982436;28;20883;-77
2024/02/08 05:49:48;;;;;;;1.83;0.87;;;9.90;99.90;;;10.47;100.00;96489.13;4982994;28;20475;-77
2024/02/08 05:52:20;;;;;;;0.90;0.70;;;10.00;99.90;;;10.49;100.00;96481.84;4984060;28;20570;-76
2024/02/08 05:54:52;;;;;;;0.90;0.70;;;10.00;99.90;;;10.50;100.00;96477.44;4982714;28;21013;-76
2024/02/08 05:57:21;;;;;;;1.10;0.70;;;9.90;99.90;;;10.49;100.00;96474.00;4983389;28;20471;-82
2024/02/08 06:00:00;;;;;;;4.33;0.73;;;9.90;99.90;;;10.45;100.00;96480.69;4983705;28;21008;-77
2024/02/08 06:02:30;;;;;;;3.20;0.80;;;9.90;99.90;;;10.48;100.00;96480.25;4982972;28;20643;-77
2024/02/08 06:05:08;;;;;;;1.33;0.70;;;9.90;99.90;;;10.49;100.00;96479.25;4982165;28;20917;-77
2024/02/08 06:07:40;;;;;;;13.57;2.77;;;9.90;99.90;;;10.48;100.00;96475.03;4984185;28;20559;-76
2024/02/08 06:10:14;;;;;;;17.17;3.90;;;10.10;99.90;;;10.51;100.00;96474.59;4983504;28;20472;-77
2024/02/08 06:12:46;;;;;;;22.33;5.93;;;10.10;99.90;;;10.48;100.00;96469.78;4982000;28;20459;-77
2024/02/08 06:15:24;;;;;;;12.20;2.93;;;10.10;99.90;;;10.50;100.00;96469.59;4982569;28;20896;-77
2024/02/08 06:17:58;;;;;;;6.83;1.60;;;10.00;99.90;;;10.52;100.00;96467.53;4981616;28;20464;-77
2024/02/08 06:20:36;;;;;;;8.47;1.70;;;10.00;99.90;;;10.51;100.00;96466.75;4984128;28;20574;-77
2024/02/08 06:23:17;;;;;;;3.93;1.57;;;9.90;99.90;;;10.54;100.00;96473.34;4981963;28;20554;-77
2024/02/08 06:28:46;;;;;;;3.57;1.30;;;10.10;99.90;;;10.53;100.00;96467.31;4981993;28;20464;-77
2024/02/08 06:31:18;;;;;;;4.97;1.67;;;10.00;99.90;;;10.54;100.00;96463.69;4980952;28;20460;-77
2024/02/08 06:36:40;;;;;;;32.37;18.97;;;9.90;99.90;;;10.55;100.00;96459.25;4977956;28;20510;-77
2024/02/08 06:39:23;;;;;;;4.63;2.90;;;9.90;99.90;;;10.55;100.00;96464.50;4979920;28;20545;-77
2024/02/08 06:41:52;;;;;;;1.50;1.07;;;10.00;99.90;;;10.52;100.00;96465.72;4977124;28;20476;-77
2024/02/08 06:47:54;;;;;;;0.80;0.70;;;10.10;99.90;;;10.50;100.00;96467.78;4978061;28;20467;-77
2024/02/08 07:37:26;;;;;;;60.40;36.63;;;10.10;99.90;;;10.58;100.00;96466.66;4976104;28;20472;-77
2024/02/08 07:40:00;;;;;;;1.63;1.33;;;10.10;99.90;;;10.60;100.00;96461.97;4976738;28;20460;-77
2024/02/08 07:42:35;;;;;;;2.50;1.20;;;10.20;99.90;;;10.58;100.00;96464.84;4977989;28;20865;-77
2024/02/08 07:45:12;;;;;;;2.50;0.87;;;10.20;99.90;;;10.60;100.00;96446.31;4977192;28;20495;-77
2024/02/08 07:47:57;;;;;;;1.13;1.00;;;10.20;99.90;;;10.64;100.00;96449.25;4976411;28;20472;-76
2024/02/08 07:50:35;;;;;;;3.87;0.90;;;10.20;99.90;;;10.65;100.00;96450.84;4977731;28;20542;-77
2024/02/08 07:53:19;;;;;;;1.00;0.80;;;10.30;99.90;;;10.65;100.00;96458.69;4977699;28;20460;-77
2024/02/08 07:55:57;;;;;;;0.70;0.70;;;10.10;99.90;;;10.66;100.00;96463.69;4977077;28;20867;-76
2024/02/08 07:58:32;;;;;;;0.80;0.80;;;10.10;99.90;;;10.70;100.00;96461.41;4977853;28;20678;-77
2024/02/08 08:01:00;;;;;;;1.13;0.70;;;10.10;99.90;;;10.71;100.00;96452.56;4978172;28;20472;-77
2024/02/08 08:03:35;;;;;;;1.57;0.70;;;10.20;99.90;;;10.72;100.00;96451.53;4977694;28;20474;-77
2024/02/08 08:06:07;;;;;;;0.70;0.70;;;10.20;99.90;;;10.77;100.00;96449.03;4976985;28;20497;-77
2024/02/08 08:08:36;;;;;;;0.70;0.70;;;10.20;99.90;;;10.75;100.00;96445.84;4976493;28;20849;-78
2024/02/08 08:11:06;;;;;;;0.90;0.80;;;10.20;99.90;;;10.72;100.00;96448.94;4976362;28;20470;-77
2024/02/08 08:16:43;;;;;;;0.90;0.70;;;10.30;99.90;;;10.76;100.00;96450.06;4978256;28;21002;-77
2024/02/08 08:19:12;;;;;;;0.70;0.60;;;10.20;99.90;;;10.78;100.00;96451.44;4976690;28;20488;-77
2024/02/08 08:24:27;;;;;;;0.70;0.70;;;10.20;99.90;;;10.81;100.00;96450.97;4975009;28;20519;-77
2024/02/08 08:27:06;;;;;;;0.80;0.70;;;10.30;99.90;;;10.81;100.00;96444.94;4975800;28;20593;-77
2024/02/08 08:29:43;;;;;;;0.70;0.60;;;10.20;99.90;;;10.83;100.00;96459.38;4977646;28;20464;-77
2024/02/08 08:35:37;;;;;;;0.80;0.70;;;10.20;99.90;;;10.85;100.00;96440.84;4977295;28;20471;-76
2024/02/08 08:38:29;;;;;;;0.80;0.80;;;10.30;99.90;;;10.89;100.00;96442.00;4976083;28;20471;-77
2024/02/08 08:41:00;;;;;;;3.43;0.80;;;10.30;99.90;;;10.86;100.00;96439.84;4976255;28;20460;-78
2024/02/08 08:43:34;;;;;;;6.70;5.23;;;10.30;99.90;;;10.82;100.00;96441.31;4978627;28;21037;-77
2024/02/08 08:46:09;;;;;;;0.80;0.80;;;10.30;99.90;;;10.83;100.00;96437.69;4976065;28;20507;-77
2024/02/08 08:48:38;;;;;;;0.70;0.70;;;10.40;99.90;;;10.89;100.00;96440.19;4976806;28;20927;-76
2024/02/08 08:51:11;;;;;;;0.70;0.60;;;10.40;99.90;;;10.86;100.00;96440.63;4980481;28;20472;-77
2024/02/08 08:53:44;;;;;;;1.07;0.80;;;10.40;99.90;;;10.89;100.00;96439.38;4979536;28;20829;-78
2024/02/08 08:56:13;;;;;;;0.70;0.60;;;10.50;99.90;;;10.83;100.00;96440.28;4977783;28;20468;-78
2024/02/08 08:58:48;;;;;;;0.70;0.70;;;10.30;99.90;;;10.87;100.00;96436.19;4977429;28;20467;-78
2024/02/08 09:01:21;;;;;;;0.80;0.70;;;10.40;99.90;;;10.89;100.00;96434.16;4977564;28;20982;-77
2024/02/08 09:04:09;;;;;;;0.70;0.60;;;10.40;99.90;;;10.90;100.00;96433.09;4978902;28;21194;-78
2024/02/08 09:06:41;;;;;;;0.80;0.70;;;10.40;99.90;;;10.94;100.00;96435.03;4977575;28;20752;-77
2024/02/08 09:11:58;;;;;;;0.70;0.60;;;10.50;99.90;;;10.97;100.00;96431.16;4982026;28;20481;-77
2024/02/08 09:14:30;;;;;;;0.70;0.60;;;10.50;99.90;;;11.00;100.00;96423.66;4983261;28;20495;-83
2024/02/08 09:17:04;;;;;;;0.80;0.80;;;10.50;99.90;;;10.98;100.00;96419.69;4981396;28;20957;-77
2024/02/08 09:19:52;;;;;;;0.70;0.63;;;10.50;99.90;;;11.02;100.00;96420.81;4983019;28;20466;-78
2024/02/08 09:22:21;;;;;;;1.03;0.70;;;10.50;99.90;;;11.03;100.00;96419.81;4981695;28;20479;-78
2024/02/08 09:24:50;;;;;;;0.70;0.60;;;10.50;99.90;;;11.03;100.00;96414.56;4982505;28;20655;-77
2024/02/08 09:27:25;;;;;;;1.33;0.70;;;10.50;99.90;;;11.08;100.00;96412.06;4979935;28;20502;-78
2024/02/08 09:29:57;;;;;;;0.80;0.80;;;10.50;99.90;;;11.09;100.00;96413.66;4981845;28;20470;-78
2024/02/08 09:35:12;;;;;;;0.90;0.70;;;10.60;99.90;;;11.07;100.00;96410.47;4978500;28;20901;-77
2024/02/08 09:37:46;;;;;;;1.00;0.90;;;10.50;99.90;;;11.10;100.00;96402.16;4981277;28;20474;-78
2024/02/08 09:40:20;;;;;;;1.33;0.70;;;10.60;99.90;;;11.14;100.00;96402.50;4980675;28;20456;-77
2024/02/08 09:43:16;;;;;;;0.70;0.70;;;10.60;99.90;;;11.12;100.00;96397.50;4984308;28;20455;-77
2024/02/08 09:46:01;;;;;;;0.90;0.70;;;10.60;99.90;;;11.15;100.00;96397.03;4980643;28;20517;-77
2024/02/08 09:48:43;;;;;;;0.80;0.80;;;10.60;99.90;;;11.19;100.00;96402.59;4981581;28;20827;-77
2024/02/08 09:51:23;;;;;;;38.90;22.00;;;10.70;99.90;;;11.18;100.00;96391.31;4981022;28;20524;-82
2024/02/08 09:53:54;;;;;;;3.37;1.77;;;10.70;99.90;;;11.21;100.00;96393.47;4981083;28;21088;-77
2024/02/08 09:56:35;;;;;;;0.77;0.70;;;10.60;99.90;;;11.22;100.00;96383.81;4980507;28;20472;-78
2024/02/08 09:59:07;;;;;;;0.80;0.80;;;10.60;99.90;;;11.23;100.00;96383.59;4979661;28;21041;-77
2024/02/08 10:01:43;;;;;;;1.30;1.20;;;10.60;99.90;;;11.25;100.00;96378.13;4982265;28;20497;-77
2024/02/08 10:04:19;;;;;;;2.87;0.90;;;10.70;99.90;;;11.24;100.00;96382.56;4983538;28;20849;-77
2024/02/08 10:06:58;;;;;;;1.13;0.97;;;10.60;99.90;;;11.25;100.00;96384.16;4983117;28;20862;-77
2024/02/08 10:09:40;;;;;;;1.30;1.00;;;10.80;99.90;;;11.21;100.00;96379.63;4984854;28;20544;-77
2024/02/08 10:12:18;;;;;;;1.77;1.17;;;10.80;99.90;;;11.21;100.00;96377.78;4982198;28;21213;-77
2024/02/08 10:14:50;;;;;;;0.70;0.70;;;10.70;99.90;;;11.20;100.00;96373.59;4983815;28;20499;-77
2024/02/08 10:17:24;;;;;;;0.80;0.70;;;10.80;99.90;;;11.22;100.00;96375.97;4982820;28;20506;-77
2024/02/08 10:23:09;;;;;;;0.80;0.70;;;10.70;99.90;;;11.26;100.00;96374.47;4983561;28;20830;-77
2024/02/08 10:28:25;;;;;;;0.80;0.70;;;10.80;99.90;;;11.22;100.00;96370.72;4984070;28;20967;-77
2024/02/08 10:30:59;;;;;;;0.80;0.70;;;10.70;99.90;;;11.20;100.00;96364.94;4983168;28;20553;-77
2024/02/08 10:33:37;;;;;;;0.80;0.70;;;10.60;99.90;;;11.24;100.00;96358.22;4984087;28;20549;-76
2024/02/08 10:36:15;;;;;;;1.03;0.80;;;10.70;99.90;;;11.25;100.00;96365.03;4983735;28;20467;-77
2024/02/08 10:38:55;;;;;;;0.80;0.70;;;10.70;99.90;;;11.30;100.00;96352.06;4982817;28;20491;-77
2024/02/08 10:41:36;;;;;;;0.80;0.70;;;10.70;99.90;;;11.27;100.00;96347.28;4984203;28;20510;-77
2024/02/08 10:44:06;;;;;;;0.90;0.83;;;10.90;99.90;;;11.23;100.00;96346.97;4983373;28;21014;-77
2024/02/08 10:46:42;;;;;;;0.80;0.73;;;11.00;99.90;;;11.24;100.00;96343.31;4982733;28;20500;-77
2024/02/08 10:49:12;;;;;;;0.80;0.67;;;10.90;99.90;;;11.24;100.00;96337.28;4982812;28;20764;-77
2024/02/08 10:51:44;;;;;;;0.90;0.60;;;10.80;99.90;;;11.27;100.00;96345.47;4981154;28;20464;-77
2024/02/08 10:54:22;;;;;;;2.60;0.70;;;10.80;99.90;;;11.30;100.00;96342.38;4983209;28;20476;-77
2024/02/08 10:57:08;;;;;;;0.70;0.60;;;10.90;99.90;;;11.31;100.00;96338.75;4985456;28;20963;-78
2024/02/08 10:59:39;;;;;;;1.10;1.00;;;10.80;99.90;;;11.36;100.00;96328.38;4981619;28;21092;-78
2024/02/08 11:02:31;;;;;;;0.80;0.80;;;10.80;99.90;;;11.37;100.00;96327.34;4982491;28;20464;-78
2024/02/08 11:05:12;;;;;;;0.70;0.70;;;11.00;99.90;;;11.37;100.00;96327.34;4982343;28;20486;-77
2024/02/08 11:07:45;;;;;;;1.00;0.87;;;11.00;99.90;;;11.39;100.00;96325.28;4982864;28;20879;-76
2024/02/08 11:10:20;;;;;;;0.70;0.60;;;10.90;99.90;;;11.40;100.00;96321.63;4982596;28;20472;-77
2024/02/08 11:12:56;;;;;;;0.80;0.80;;;10.90;99.90;;;11.39;100.00;96322.66;4982510;28;20473;-77
2024/02/08 11:15:31;;;;;;;0.80;0.70;;;11.00;99.90;;;11.40;100.00;96311.16;4983401;28;20467;-77
2024/02/08 11:18:03;;;;;;;0.90;0.70;;;10.90;99.90;;;11.42;100.00;96316.94;4982129;28;21069;-77
2024/02/08 11:20:42;;;;;;;0.70;0.60;;;11.00;99.90;;;11.42;100.00;96303.88;4981863;28;21091;-77
2024/02/08 11:23:18;;;;;;;1.00;0.90;;;10.80;99.90;;;11.45;100.00;96305.25;4982035;28;20471;-77
2024/02/08 11:25:47;;;;;;;2.93;0.90;;;10.90;99.90;;;11.42;100.00;96309.09;4978559;28;20558;-77
2024/02/08 11:28:16;;;;;;;0.70;0.70;;;10.80;99.90;;;11.42;100.00;96292.63;4981488;28;20507;-77
2024/02/08 11:30:55;;;;;;;0.80;0.70;;;10.80;99.90;;;11.45;100.00;96292.94;4981747;28;20461;-77
2024/02/08 11:33:32;;;;;;;1.00;0.80;;;10.90;99.90;;;11.48;100.00;96289.84;4982321;28;20495;-77
2024/02/08 11:36:12;;;;;;;1.80;1.20;;;11.00;99.90;;;11.45;100.00;96295.53;4982763;28;20460;-77
2024/02/08 11:38:46;;;;;;;0.80;0.70;;;11.10;99.90;;;11.51;100.00;96288.59;4982378;28;20950;-76
2024/02/08 11:41:20;;;;;;;1.33;0.83;;;11.10;99.90;;;11.51;100.00;96280.72;4982874;28;20471;-77
2024/02/08 11:44:02;;;;;;;1.20;0.80;;;11.10;99.90;;;11.53;100.00;96279.47;4980852;28;20456;-77
2024/02/08 11:46:37;;;;;;;0.80;0.80;;;11.10;99.90;;;11.60;100.00;96285.34;4979472;28;20495;-78
2024/02/08 11:49:14;;;;;;;1.17;0.80;;;11.10;99.90;;;11.51;100.00;96281.53;4981854;28;20474;-78
2024/02/08 11:51:45;;;;;;;1.10;1.00;;;11.10;99.90;;;11.52;100.00;96270.00;4982097;28;20467;-77
2024/02/08 11:54:28;;;;;;;0.97;0.87;;;11.10;99.90;;;11.51;100.00;96276.28;4979999;28;20480;-77
2024/02/08 11:56:58;;;;;;;2.60;0.70;;;11.00;99.90;;;11.58;100.00;96266.47;4979628;28;20594;-78
2024/02/08 11:59:27;;;;;;;1.43;0.90;;;11.10;99.90;;;11.57;100.00;96259.63;4980681;28;20554;-77
2024/02/08 12:01:58;;;;;;;1.23;0.87;;;11.10;99.90;;;11.54;100.00;96254.88;4979396;28;20460;-77
2024/02/08 12:04:29;;;;;;;1.47;1.00;;;11.10;99.90;;;11.56;100.00;96252.00;4980537;28;20464;-76
2024/02/08 12:07:02;;;;;;;1.00;0.90;;;11.10;99.90;;;11.55;100.00;96246.00;4982494;28;20567;-77
2024/02/08 12:09:33;;;;;;;3.87;1.33;;;11.10;99.90;;;11.52;100.00;96241.22;4977520;28;21148;-78
2024/02/08 12:12:03;;;;;;;1.63;0.93;;;11.00;99.90;;;11.52;100.00;96251.69;4976453;28;20542;-78
2024/02/08 12:14:32;;;;;;;69.53;42.23;;;11.10;99.90;;;11.52;100.00;96251.69;4978474;28;20954;-78
2024/02/08 12:17:02;;;;;;;4.83;1.50;;;11.10;99.90;;;11.52;100.00;96245.69;4974208;28;20464;-77
2024/02/08 12:19:30;;;;;;;2.70;1.30;;;11.10;99.90;;;11.51;100.00;96244.88;4979066;28;20474;-77
2024/02/08 12:22:04;;;;;;;4.30;1.67;;;11.10;99.90;;;11.54;100.00;96252.25;4978177;28;21089;-77
2024/02/08 12:24:35;;;;;;;5.23;1.10;;;11.10;99.90;;;11.58;100.00;96252.59;4979267;28;20463;-77
2024/02/08 12:27:12;;;;;;;10.43;2.40;;;11.20;99.90;;;11.58;100.00;96252.59;4977647;28;20467;-77
2024/02/08 12:29:50;;;;;;;7.23;1.70;;;11.20;99.90;;;11.58;100.00;96240.28;4977084;28;20464;-77
2024/02/08 12:32:22;;;;;;;7.90;2.30;;;11.30;99.90;;;11.58;100.00;96240.28;4979109;28;20467;-77
2024/02/08 12:34:54;;;;;;;8.50;2.20;;;11.30;99.90;;;11.65;100.00;96231.47;4977814;28;20460;-77
2024/02/08 12:37:28;;;;;;;11.43;2.20;;;11.30;99.90;;;11.66;100.00;96238.31;4978411;28;20499;-77